createdAt,value
2023-02-05T00:00:46.316Z,3.20
2023-02-05T00:03:35.301Z,3.20
2023-02-05T00:06:02.143Z,3.40
2023-02-05T00:08:29.804Z,3.30
2023-02-05T00:10:56.165Z,3.30
2023-02-05T00:13:24.337Z,3.20
2023-02-05T00:15:51.202Z,3.20
2023-02-05T00:18:17.819Z,2.90
2023-02-05T00:20:44.433Z,3.40
2023-02-05T00:23:11.226Z,3.50
2023-02-05T00:25:38.561Z,3.10
2023-02-05T00:28:05.886Z,3.10
2023-02-05T00:30:33.172Z,3.60
2023-02-05T00:33:00.542Z,2.90
2023-02-05T00:35:27.372Z,3.10
2023-02-05T00:37:55.767Z,3.10
2023-02-05T00:40:22.192Z,3.20
2023-02-05T00:42:48.831Z,2.90
2023-02-05T00:45:15.414Z,3.80
2023-02-05T00:47:42.017Z,3.40
2023-02-05T00:50:10.052Z,3.30
2023-02-05T00:52:36.490Z,3.30
2023-02-05T00:55:03.221Z,3.50
2023-02-05T00:57:29.781Z,3.00
2023-02-05T00:59:56.297Z,3.00
2023-02-05T01:02:24.011Z,4.10
2023-02-05T01:04:51.237Z,3.20
2023-02-05T01:07:18.867Z,3.10
2023-02-05T01:09:45.720Z,3.20
2023-02-05T01:12:13.595Z,3.60
2023-02-05T01:14:41.140Z,3.10
2023-02-05T01:17:08.794Z,2.80
2023-02-05T01:19:35.945Z,3.50
2023-02-05T01:22:02.687Z,3.40
2023-02-05T01:24:29.172Z,3.20
2023-02-05T01:26:58.108Z,3.40
2023-02-05T01:29:25.142Z,3.10
2023-02-05T01:31:51.808Z,3.10
2023-02-05T01:34:19.060Z,3.40
2023-02-05T01:36:45.486Z,3.20
2023-02-05T01:39:12.058Z,2.90
2023-02-05T01:41:41.366Z,3.00
2023-02-05T01:44:17.874Z,3.20
2023-02-05T01:46:45.433Z,3.40
2023-02-05T01:49:16.275Z,3.20
2023-02-05T01:51:43.165Z,2.80
2023-02-05T01:54:09.837Z,2.90
2023-02-05T01:56:39.313Z,3.00
2023-02-05T01:59:11.284Z,2.80
2023-02-05T02:01:38.972Z,2.90
2023-02-05T02:04:06.267Z,2.90
2023-02-05T02:09:00.936Z,3.20
2023-02-05T02:13:56.661Z,2.60
2023-02-05T02:16:24.375Z,2.70
2023-02-05T02:18:51.883Z,3.10
2023-02-05T02:26:23.668Z,2.50
2023-02-05T02:28:49.995Z,2.70
2023-02-05T02:31:22.640Z,3.00
2023-02-05T02:33:59.674Z,3.00
2023-02-05T02:36:29.032Z,3.10
2023-02-05T02:39:02.879Z,2.80
2023-02-05T02:41:31.869Z,3.60
2023-02-05T02:44:06.912Z,3.50
2023-02-05T02:46:40.045Z,4.30
2023-02-05T02:49:11.354Z,3.80
2023-02-05T02:51:39.084Z,3.60
2023-02-05T02:54:06.960Z,3.90
2023-02-05T02:56:36.593Z,3.60
2023-02-05T02:59:05.968Z,3.50
2023-02-05T03:01:34.265Z,3.80
2023-02-05T03:04:26.894Z,3.60
2023-02-05T03:06:55.774Z,3.10
2023-02-05T03:09:54.674Z,3.60
2023-02-05T03:12:21.119Z,3.00
2023-02-05T03:14:47.907Z,3.10
2023-02-05T03:17:19.091Z,3.60
2023-02-05T03:19:46.180Z,2.80
2023-02-05T03:22:12.678Z,3.10
2023-02-05T03:24:39.564Z,2.30
2023-02-05T03:27:06.071Z,4.00
2023-02-05T03:29:35.011Z,3.20
2023-02-05T03:32:18.161Z,3.30
2023-02-05T03:34:44.604Z,3.40
2023-02-05T03:37:18.708Z,2.90
2023-02-05T03:39:45.651Z,3.60
2023-02-05T03:42:17.850Z,3.50
2023-02-05T03:45:04.176Z,3.40
2023-02-05T03:47:37.308Z,3.00
2023-02-05T03:50:21.148Z,2.90
2023-02-05T03:52:50.687Z,2.60
2023-02-05T03:55:17.060Z,2.90
2023-02-05T03:57:53.149Z,3.40
2023-02-05T04:00:19.721Z,2.80
2023-02-05T04:02:46.788Z,2.70
2023-02-05T04:05:13.573Z,3.10
2023-02-05T04:07:39.988Z,3.10
2023-02-05T04:10:06.622Z,2.70
2023-02-05T04:12:33.067Z,3.20
2023-02-05T04:14:59.876Z,3.00
2023-02-05T04:19:53.103Z,2.90
2023-02-05T04:22:19.500Z,2.60
2023-02-05T04:24:45.917Z,2.90
2023-02-05T04:27:12.491Z,2.70
2023-02-05T04:29:38.898Z,3.50
2023-02-05T04:32:05.221Z,2.60
2023-02-05T04:34:31.753Z,3.10
2023-02-05T04:36:58.311Z,3.20
2023-02-05T04:39:24.939Z,2.80
2023-02-05T04:41:51.837Z,3.00
2023-02-05T04:44:18.693Z,3.00
2023-02-05T04:46:45.101Z,3.40
2023-02-05T04:49:11.532Z,3.10
2023-02-05T04:51:37.980Z,2.90
2023-02-05T04:54:04.456Z,3.10
2023-02-05T04:56:31.003Z,3.00
2023-02-05T04:58:57.359Z,2.80
2023-02-05T05:01:23.977Z,2.80
2023-02-05T05:03:50.566Z,2.80
2023-02-05T05:06:17.535Z,2.70
2023-02-05T05:08:43.982Z,3.00
2023-02-05T05:11:12.344Z,3.20
2023-02-05T05:13:39.468Z,3.60
2023-02-05T05:16:06.218Z,2.80
2023-02-05T05:18:34.529Z,3.00
2023-02-05T05:21:01.940Z,2.90
2023-02-05T05:23:29.187Z,2.90
2023-02-05T05:28:22.092Z,3.90
2023-02-05T05:30:48.583Z,3.50
2023-02-05T05:33:15.049Z,3.00
2023-02-05T05:35:41.418Z,3.00
2023-02-05T05:38:07.877Z,3.40
2023-02-05T05:40:53.136Z,3.90
2023-02-05T05:43:38.754Z,5.50
2023-02-05T05:46:05.914Z,4.70
2023-02-05T05:50:58.616Z,3.90
2023-02-05T05:53:25.303Z,3.60
2023-02-05T05:55:51.611Z,3.80
2023-02-05T05:58:18.428Z,3.80
2023-02-05T06:00:44.824Z,4.00
2023-02-05T06:03:11.236Z,3.80
2023-02-05T06:05:37.875Z,3.80
2023-02-05T06:08:04.936Z,4.50
2023-02-05T06:10:32.348Z,3.80
2023-02-05T06:12:59.262Z,4.60
2023-02-05T06:15:26.291Z,4.50
2023-02-05T06:20:19.130Z,13.60
2023-02-05T06:22:45.613Z,24.00
2023-02-05T06:25:12.285Z,25.10
2023-02-05T06:30:05.798Z,15.20
2023-02-05T06:32:32.212Z,13.50
2023-02-05T06:34:58.560Z,15.10
2023-02-05T06:37:34.166Z,12.20
2023-02-05T06:42:39.208Z,8.40
2023-02-05T06:45:06.261Z,7.60
2023-02-05T06:52:25.992Z,6.00
2023-02-05T06:54:52.526Z,6.40
2023-02-05T06:57:19.041Z,6.90
2023-02-05T06:59:45.987Z,6.10
2023-02-05T07:02:13.022Z,6.40
2023-02-05T07:04:39.588Z,7.00
2023-02-05T07:07:06.022Z,6.70
2023-02-05T07:09:32.537Z,7.70
2023-02-05T07:11:58.965Z,7.10
2023-02-05T07:14:25.625Z,8.60
2023-02-05T07:16:52.929Z,7.60
2023-02-05T07:19:19.960Z,8.80
2023-02-05T07:21:46.733Z,9.00
2023-02-05T07:24:13.818Z,8.10
2023-02-05T07:29:09.093Z,5.90
2023-02-05T07:31:35.812Z,5.60
2023-02-05T07:34:03.628Z,6.30
2023-02-05T07:36:30.666Z,5.40
2023-02-05T07:38:57.307Z,6.00
2023-02-05T07:41:26.106Z,7.10
2023-02-05T07:43:55.709Z,6.80
2023-02-05T07:46:22.588Z,6.20
2023-02-05T07:48:49.110Z,9.80
2023-02-05T07:51:22.891Z,10.10
2023-02-05T07:53:50.342Z,10.50
2023-02-05T07:56:18.160Z,12.10
2023-02-05T07:58:45.361Z,12.80
2023-02-05T08:03:39.169Z,10.60
2023-02-05T08:06:06.332Z,7.80
2023-02-05T08:11:00.617Z,8.50
2023-02-05T08:13:27.078Z,6.80
2023-02-05T08:15:53.670Z,5.10
2023-02-05T08:18:20.093Z,5.50
2023-02-05T08:20:46.482Z,5.80
2023-02-05T08:23:13.159Z,5.10
2023-02-05T08:25:39.904Z,5.10
2023-02-05T08:28:06.460Z,5.40
2023-02-05T08:30:33.190Z,4.80
2023-02-05T08:33:00.946Z,5.30
2023-02-05T08:35:27.485Z,5.00
2023-02-05T08:37:53.869Z,5.40
2023-02-05T08:40:20.271Z,5.70
2023-02-05T08:42:51.859Z,5.70
2023-02-05T08:45:19.138Z,5.70
2023-02-05T08:47:45.955Z,5.00
2023-02-05T08:50:12.721Z,5.20
2023-02-05T08:52:39.294Z,5.60
2023-02-05T08:55:05.750Z,5.90
2023-02-05T08:57:32.631Z,5.30
2023-02-05T08:59:59.501Z,5.60
2023-02-05T09:02:28.521Z,6.00
2023-02-05T09:05:07.930Z,5.60
2023-02-05T09:07:36.482Z,5.10
2023-02-05T09:10:03.231Z,5.70
2023-02-05T09:12:29.973Z,6.00
2023-02-05T09:14:56.626Z,5.90
2023-02-05T09:17:23.245Z,6.10
2023-02-05T09:19:49.807Z,5.50
2023-02-05T09:22:17.944Z,5.80
2023-02-05T09:24:44.592Z,5.40
2023-02-05T09:27:13.789Z,5.20
2023-02-05T09:29:41.477Z,5.00
2023-02-05T09:32:08.283Z,5.50
2023-02-05T09:34:35.338Z,4.80
2023-02-05T09:37:02.387Z,4.90
2023-02-05T09:40:12.008Z,5.70
2023-02-05T09:42:17.151Z,5.20
2023-02-05T09:45:03.199Z,4.90
2023-02-05T09:47:47.393Z,5.00
2023-02-05T09:50:17.950Z,4.70
2023-02-05T09:52:49.183Z,4.30
2023-02-05T09:55:29.950Z,4.50
2023-02-05T09:58:00.460Z,3.80
2023-02-05T10:00:32.840Z,3.70
2023-02-05T10:03:05.725Z,3.60
2023-02-05T10:05:37.802Z,3.70
2023-02-05T10:08:40.046Z,3.70
2023-02-05T10:11:12.772Z,4.10
2023-02-05T10:13:40.803Z,4.50
2023-02-05T10:16:31.336Z,3.90
2023-02-05T10:19:16.113Z,3.80
2023-02-05T10:21:55.695Z,4.10
2023-02-05T10:24:25.131Z,4.40
2023-02-05T10:26:52.731Z,3.80
2023-02-05T10:29:23.626Z,4.40
2023-02-05T10:31:50.273Z,4.60
2023-02-05T10:34:16.990Z,4.40
2023-02-05T10:36:44.465Z,5.00
2023-02-05T10:39:15.206Z,4.50
2023-02-05T10:41:44.254Z,4.70
2023-02-05T10:44:14.257Z,4.50
2023-02-05T10:46:43.504Z,4.20
2023-02-05T10:49:15.012Z,4.30
2023-02-05T10:51:42.884Z,4.50
2023-02-05T10:54:15.978Z,4.40
2023-02-05T10:56:43.542Z,4.60
2023-02-05T10:59:25.264Z,4.50
2023-02-05T11:01:54.462Z,1.80
2023-02-05T11:04:38.273Z,2.20
2023-02-05T11:07:10.528Z,1.80
2023-02-05T11:09:38.092Z,2.30
2023-02-05T11:12:08.751Z,2.10
2023-02-05T11:14:40.382Z,2.30
2023-02-05T11:17:13.660Z,2.30
2023-02-05T11:19:40.653Z,2.30
2023-02-05T11:22:22.705Z,1.90
2023-02-05T11:24:49.346Z,1.70
2023-02-05T11:27:18.846Z,2.10
2023-02-05T11:29:45.893Z,2.70
2023-02-05T11:32:30.504Z,3.50
2023-02-05T11:35:17.876Z,3.60
2023-02-05T11:37:45.957Z,2.30
2023-02-05T11:40:26.914Z,2.40
2023-02-05T11:42:57.373Z,2.50
2023-02-05T11:45:25.313Z,2.60
2023-02-05T11:47:52.894Z,2.50
2023-02-05T11:50:24.624Z,2.80
2023-02-05T11:52:52.288Z,2.10
2023-02-05T11:57:45.778Z,1.90
2023-02-05T12:00:12.402Z,2.10
2023-02-05T12:02:40.008Z,2.30
2023-02-05T12:05:09.000Z,2.30
2023-02-05T12:07:50.098Z,2.00
2023-02-05T12:10:37.657Z,1.60
2023-02-05T12:13:07.557Z,2.10
2023-02-05T12:15:57.827Z,1.90
2023-02-05T12:18:42.345Z,2.10
2023-02-05T12:21:35.277Z,2.20
2023-02-05T12:24:15.320Z,1.80
2023-02-05T12:26:44.246Z,1.30
2023-02-05T12:29:13.635Z,1.40
2023-02-05T12:31:46.731Z,1.90
2023-02-05T12:34:13.645Z,2.30
2023-02-05T12:36:40.106Z,2.80
2023-02-05T12:39:35.493Z,3.20
2023-02-05T12:42:11.079Z,3.10
2023-02-05T12:44:56.714Z,3.10
2023-02-05T12:47:43.431Z,3.20
2023-02-05T12:50:14.057Z,3.10
2023-02-05T12:53:08.029Z,3.00
2023-02-05T12:55:53.007Z,2.90
2023-02-05T12:58:20.454Z,3.00
2023-02-05T13:00:52.544Z,3.00
2023-02-05T13:03:28.267Z,3.10
2023-02-05T13:05:57.765Z,3.00
2023-02-05T13:08:36.907Z,3.50
2023-02-05T13:11:22.466Z,3.20
2023-02-05T13:13:51.884Z,3.10
2023-02-05T13:16:21.542Z,3.30
2023-02-05T13:19:08.491Z,3.10
2023-02-05T13:21:53.791Z,3.40
2023-02-05T13:25:01.406Z,3.10
2023-02-05T13:27:49.940Z,3.10
2023-02-05T13:30:20.897Z,3.80
2023-02-05T13:32:51.187Z,3.40
2023-02-05T13:35:19.459Z,3.90
2023-02-05T13:38:10.007Z,4.10
2023-02-05T13:40:59.013Z,4.20
2023-02-05T13:43:49.942Z,3.90
2023-02-05T13:46:34.653Z,4.00
2023-02-05T13:49:42.249Z,4.40
2023-02-05T13:52:35.757Z,5.20
2023-02-05T13:55:04.652Z,4.50
2023-02-05T13:57:46.946Z,3.90
2023-02-05T14:00:14.190Z,4.30
2023-02-05T14:02:45.122Z,3.90
2023-02-05T14:05:15.766Z,4.30
2023-02-05T14:07:50.269Z,4.50
2023-02-05T14:10:27.873Z,4.30
2023-02-05T14:13:15.507Z,4.20
2023-02-05T14:15:43.942Z,4.80
2023-02-05T14:18:16.313Z,4.70
2023-02-05T14:20:45.457Z,4.70
2023-02-05T14:23:16.614Z,4.50
2023-02-05T14:26:03.615Z,4.40
2023-02-05T14:28:31.904Z,5.20
2023-02-05T14:31:03.150Z,4.50
2023-02-05T14:33:37.975Z,4.60
2023-02-05T14:36:17.922Z,4.70
2023-02-05T14:39:00.702Z,4.90
2023-02-05T14:41:31.787Z,5.40
2023-02-05T14:44:03.296Z,6.20
2023-02-05T14:46:37.083Z,5.20
2023-02-05T14:49:05.397Z,7.80
2023-02-05T14:51:40.840Z,15.40
2023-02-05T14:54:18.558Z,6.90
2023-02-05T14:56:50.617Z,9.50
2023-02-05T14:59:28.982Z,5.90
2023-02-05T15:01:57.488Z,5.40
2023-02-05T15:04:26.916Z,5.40
2023-02-05T15:06:54.759Z,5.60
2023-02-05T15:09:27.944Z,6.30
2023-02-05T15:11:58.061Z,5.70
2023-02-05T15:14:32.645Z,5.90
2023-02-05T15:17:05.928Z,6.60
2023-02-05T15:19:34.050Z,7.10
2023-02-05T15:22:03.169Z,7.30
2023-02-05T15:24:33.166Z,7.20
2023-02-05T15:27:13.217Z,11.70
2023-02-05T15:29:43.172Z,17.70
2023-02-05T15:32:17.352Z,9.50
2023-02-05T15:34:54.500Z,16.30
2023-02-05T15:37:28.664Z,27.20
2023-02-05T15:39:56.633Z,41.20
2023-02-05T15:42:37.273Z,11.00
2023-02-05T15:45:17.441Z,7.90
2023-02-05T15:47:46.067Z,7.10
2023-02-05T15:50:14.083Z,7.00
2023-02-05T15:52:41.855Z,7.00
2023-02-05T15:55:14.509Z,11.90
2023-02-05T15:57:41.383Z,7.50
2023-02-05T16:00:08.923Z,8.30
2023-02-05T16:02:39.368Z,9.60
2023-02-05T16:05:21.243Z,9.00
2023-02-05T16:07:54.744Z,10.50
2023-02-05T16:10:22.958Z,8.70
2023-02-05T16:12:56.615Z,8.40
2023-02-05T16:15:24.590Z,7.50
2023-02-05T16:17:51.745Z,8.10
2023-02-05T16:20:33.677Z,8.10
2023-02-05T16:23:02.648Z,9.00
2023-02-05T16:25:42.227Z,8.70
2023-02-05T16:28:18.552Z,8.40
2023-02-05T16:30:47.408Z,7.80
2023-02-05T16:33:17.452Z,7.80
2023-02-05T16:35:46.532Z,8.80
2023-02-05T16:38:18.066Z,8.70
2023-02-05T16:40:47.774Z,7.60
2023-02-05T16:43:41.246Z,7.30
2023-02-05T16:46:07.904Z,8.00
2023-02-05T16:48:41.075Z,7.50
2023-02-05T16:51:26.442Z,7.00
2023-02-05T16:53:53.127Z,9.30
2023-02-05T16:56:21.970Z,16.70
2023-02-05T16:58:57.313Z,8.60
2023-02-05T17:01:29.396Z,7.60
2023-02-05T17:03:56.935Z,7.60
2023-02-05T17:06:23.680Z,7.30
2023-02-05T17:08:54.927Z,7.20
2023-02-05T17:11:41.844Z,6.90
2023-02-05T17:16:38.720Z,7.30
2023-02-05T17:19:22.764Z,12.40
2023-02-05T17:22:09.313Z,14.50
2023-02-05T17:24:35.873Z,16.10
2023-02-05T17:27:02.721Z,14.70
2023-02-05T17:29:30.384Z,15.20
2023-02-05T17:31:58.347Z,14.50
2023-02-05T17:34:25.090Z,12.80
2023-02-05T17:36:52.132Z,12.10
2023-02-05T17:39:21.129Z,12.00
2023-02-05T17:42:03.230Z,11.50
2023-02-05T17:44:31.004Z,11.60
2023-02-05T17:46:58.343Z,10.00
2023-02-05T17:49:24.986Z,10.70
2023-02-05T17:51:52.234Z,10.10
2023-02-05T17:54:23.137Z,10.60
2023-02-05T17:56:51.771Z,10.20
2023-02-05T17:59:23.864Z,10.00
2023-02-05T18:01:54.929Z,9.70
2023-02-05T18:04:22.414Z,9.20
2023-02-05T18:06:49.855Z,9.30
2023-02-05T18:09:18.154Z,9.60
2023-02-05T18:11:44.751Z,9.10
2023-02-05T18:16:39.833Z,10.50
2023-02-05T18:19:06.879Z,16.50
2023-02-05T18:21:35.575Z,17.90
2023-02-05T18:24:03.731Z,17.70
2023-02-05T18:26:30.545Z,21.30
2023-02-05T18:28:57.586Z,22.50
2023-02-05T18:31:26.071Z,21.30
2023-02-05T18:33:54.249Z,18.30
2023-02-05T18:36:24.531Z,16.40
2023-02-05T18:38:52.224Z,13.70
2023-02-05T18:41:21.422Z,15.50
2023-02-05T18:43:48.231Z,14.60
2023-02-05T18:46:16.701Z,13.20
2023-02-05T18:48:49.117Z,13.50
2023-02-05T18:51:17.305Z,14.10
2023-02-05T18:53:44.944Z,15.10
2023-02-05T18:56:16.090Z,13.70
2023-02-05T18:58:43.241Z,12.20
2023-02-05T19:01:14.968Z,13.70
2023-02-05T19:03:42.349Z,12.60
2023-02-05T19:06:10.517Z,11.70
2023-02-05T19:08:37.473Z,12.50
2023-02-05T19:11:13.830Z,10.90
2023-02-05T19:13:41.281Z,15.90
2023-02-05T19:16:12.429Z,14.80
2023-02-05T19:18:43.773Z,13.80
2023-02-05T19:21:14.294Z,14.00
2023-02-05T19:23:41.753Z,15.20
2023-02-05T19:26:13.305Z,18.90
2023-02-05T19:28:41.817Z,21.30
2023-02-05T19:31:11.468Z,21.30
2023-02-05T19:33:42.832Z,19.70
2023-02-05T19:36:12.250Z,19.80
2023-02-05T19:38:40.972Z,21.00
2023-02-05T19:41:09.492Z,22.70
2023-02-05T19:43:36.364Z,22.90
2023-02-05T19:46:06.608Z,21.50
2023-02-05T19:48:34.032Z,22.00
2023-02-05T19:51:05.283Z,21.50
2023-02-05T19:53:33.772Z,23.60
2023-02-05T19:56:07.399Z,24.40
2023-02-05T19:58:35.153Z,24.10
2023-02-05T20:01:10.300Z,21.30
2023-02-05T20:03:37.715Z,15.50
2023-02-05T20:06:05.386Z,27.20
2023-02-05T20:08:32.107Z,30.00
2023-02-05T20:11:01.151Z,27.80
2023-02-05T20:13:29.691Z,27.00
2023-02-05T20:16:03.971Z,22.00
2023-02-05T20:18:35.280Z,20.60
2023-02-05T20:21:11.212Z,20.70
2023-02-05T20:23:38.350Z,17.90
2023-02-05T20:26:07.866Z,19.00
2023-02-05T20:28:57.644Z,22.10
2023-02-05T20:31:34.052Z,26.20
2023-02-05T20:34:03.310Z,27.00
2023-02-05T20:36:30.857Z,29.40
2023-02-05T20:41:24.843Z,28.50
2023-02-05T20:43:51.490Z,30.50
2023-02-05T20:46:21.013Z,31.80
2023-02-05T20:48:48.552Z,29.60
2023-02-05T20:51:17.756Z,28.90
2023-02-05T20:53:44.888Z,27.10
2023-02-05T20:56:15.867Z,25.00
2023-02-05T20:58:42.875Z,20.30
2023-02-05T21:01:12.630Z,18.50
2023-02-05T21:03:41.491Z,17.10
2023-02-05T21:06:08.830Z,15.30
2023-02-05T21:08:39.866Z,14.60
2023-02-05T21:11:07.169Z,12.80
2023-02-05T21:13:34.731Z,12.50
2023-02-05T21:16:02.284Z,11.80
2023-02-05T21:18:30.102Z,12.30
2023-02-05T21:21:05.648Z,12.20
2023-02-05T21:23:32.591Z,12.50
2023-02-05T21:26:01.268Z,14.40
2023-02-05T21:28:28.633Z,13.00
2023-02-05T21:31:06.138Z,13.00
2023-02-05T21:33:34.008Z,13.70
2023-02-05T21:36:08.134Z,15.40
2023-02-05T21:38:35.246Z,15.60
2023-02-05T21:41:11.099Z,17.50
2023-02-05T21:43:38.041Z,19.80
2023-02-05T21:46:06.357Z,18.50
2023-02-05T21:48:33.249Z,18.20
2023-02-05T21:51:04.307Z,17.70
2023-02-05T21:53:31.954Z,18.70
2023-02-05T21:56:01.690Z,17.10
2023-02-05T21:58:30.563Z,16.90
2023-02-05T22:01:06.955Z,17.60
2023-02-05T22:03:35.516Z,16.20
2023-02-05T22:06:06.032Z,19.40
2023-02-05T22:08:34.734Z,18.80
2023-02-05T22:11:02.952Z,19.50
2023-02-05T22:13:37.551Z,19.30
2023-02-05T22:16:06.791Z,20.70
2023-02-05T22:18:34.762Z,19.40
2023-02-05T22:21:08.559Z,18.40
2023-02-05T22:23:35.317Z,18.90
2023-02-05T22:26:02.480Z,17.50
2023-02-05T22:28:29.634Z,16.90
2023-02-05T22:31:12.618Z,16.30
2023-02-05T22:33:40.212Z,16.00
2023-02-05T22:36:08.348Z,16.60
2023-02-05T22:38:36.457Z,17.00
2023-02-05T22:41:09.336Z,16.20
2023-02-05T22:43:36.041Z,16.00
2023-02-05T22:46:06.807Z,15.80
2023-02-05T22:48:33.959Z,16.80
2023-02-05T22:53:26.819Z,17.70
2023-02-05T22:55:53.351Z,18.00
2023-02-05T22:58:19.792Z,19.20
2023-02-05T23:00:46.234Z,19.30
2023-02-05T23:03:12.906Z,19.10
2023-02-05T23:05:39.389Z,22.10
2023-02-05T23:08:05.917Z,20.40
2023-02-05T23:10:32.894Z,20.80
2023-02-05T23:12:59.450Z,20.20
2023-02-05T23:15:25.847Z,20.70
2023-02-05T23:17:52.356Z,22.10
2023-02-05T23:20:18.788Z,22.00
2023-02-05T23:22:45.463Z,21.30
2023-02-05T23:25:12.417Z,23.20
2023-02-05T23:27:40.620Z,22.70
2023-02-05T23:30:07.577Z,22.20
2023-02-05T23:32:34.290Z,23.60
2023-02-05T23:35:00.764Z,24.10
2023-02-05T23:37:27.521Z,26.40
2023-02-05T23:39:54.286Z,26.20
2023-02-05T23:42:20.743Z,24.70
2023-02-05T23:44:47.089Z,25.40
2023-02-05T23:47:13.843Z,27.30
2023-02-05T23:49:40.375Z,27.10
2023-02-05T23:52:06.776Z,26.40
2023-02-05T23:54:33.759Z,26.40
2023-02-05T23:57:00.050Z,29.10
2023-02-05T23:59:26.577Z,28.50
